Time;durP1;ratioP1;P1;durP2;ratioP2;P2;SDS_P1;SDS_P2;PMS_P1;PMS_P2;Temp;Humidity;BMP_temperature;BMP_pressure;BME280_temperature;BME280_humidity;BME280_pressure;Samples;Min_cycle;Max_cycle;Signal;HPM_P1;HPM_P2
2021/04/06 00:01:49;;;;;;;6.10;3.17;;;17.80;74.00;;;;;;5010842;28;95333;-45
2021/04/06 00:04:24;;;;;;;5.28;3.47;;;17.80;74.10;;;;;;5016782;28;95841;-45
2021/04/06 00:06:58;;;;;;;5.63;3.13;;;17.90;74.30;;;;;;5016639;28;95889;-46
2021/04/06 00:09:32;;;;;;;5.65;3.20;;;17.90;74.30;;;;;;5019358;28;95950;-45
2021/04/06 00:12:06;;;;;;;4.97;3.38;;;18.00;74.30;;;;;;5021404;28;96269;-46
2021/04/06 00:14:39;;;;;;;4.35;3.40;;;18.00;74.10;;;;;;5019772;28;95671;-46
2021/04/06 00:17:13;;;;;;;5.07;3.28;;;18.10;73.90;;;;;;5015912;27;96726;-46
2021/04/06 00:19:46;;;;;;;4.40;3.30;;;18.10;74.00;;;;;;5019157;27;96592;-46
2021/04/06 00:22:19;;;;;;;5.55;3.67;;;18.20;73.80;;;;;;5018703;28;95892;-46
2021/04/06 00:24:52;;;;;;;5.93;4.10;;;18.20;73.70;;;;;;5017045;28;96094;-45
2021/04/06 00:27:27;;;;;;;4.50;3.22;;;18.30;73.70;;;;;;5019834;28;95936;-46
2021/04/06 00:30:07;;;;;;;4.55;3.45;;;18.30;73.60;;;;;;5000931;28;95349;-46
2021/04/06 00:32:37;;;;;;;3.38;2.95;;;18.30;73.50;;;;;;5017806;28;95543;-45
2021/04/06 00:35:09;;;;;;;3.60;2.95;;;18.30;73.50;;;;;;5016800;28;95831;-45
2021/04/06 00:37:48;;;;;;;4.18;2.90;;;18.40;73.50;;;;;;5033811;27;97493;-46
2021/04/06 00:40:20;;;;;;;5.78;3.15;;;18.30;73.50;;;;;;5012356;28;95607;-46
2021/04/06 00:43:01;;;;;;;5.22;4.05;;;18.40;73.70;;;;;;5021571;28;97056;-45
2021/04/06 00:45:38;;;;;;;4.63;3.63;;;18.50;73.90;;;;;;5016494;27;96186;-45
2021/04/06 00:48:21;;;;;;;3.53;3.22;;;18.50;73.50;;;;;;5011889;28;96032;-45
2021/04/06 00:51:20;;;;;;;4.88;3.72;;;18.50;73.80;;;;;;5017645;28;96580;-46
2021/04/06 00:54:02;;;;;;;6.60;3.80;;;18.50;73.80;;;;;;5020419;28;97432;-46
2021/04/06 00:56:34;;;;;;;6.03;3.85;;;18.50;73.60;;;;;;4996849;28;96950;-46
2021/04/06 00:59:07;;;;;;;4.30;3.90;;;18.50;73.70;;;;;;5019538;28;96676;-46
2021/04/06 01:01:45;;;;;;;6.53;3.95;;;18.50;73.50;;;;;;5014241;28;98951;-46
2021/04/06 01:04:21;;;;;;;5.18;3.45;;;18.50;73.50;;;;;;5021017;28;95778;-45
2021/04/06 01:07:16;;;;;;;6.97;4.15;;;18.50;73.60;;;;;;5019614;28;95704;-45
2021/04/06 01:09:53;;;;;;;6.38;4.05;;;18.50;73.50;;;;;;5004517;28;96473;-46
2021/04/06 01:12:26;;;;;;;4.78;3.97;;;18.50;73.40;;;;;;5005579;27;97426;-50
2021/04/06 01:14:57;;;;;;;7.30;5.88;;;18.50;73.30;;;;;;5013391;27;96190;-46
2021/04/06 01:17:31;;;;;;;5.35;4.00;;;18.60;73.30;;;;;;5000433;28;95901;-51
2021/04/06 01:20:16;;;;;;;6.82;4.45;;;18.60;73.20;;;;;;5026112;27;97396;-47
2021/04/06 01:22:54;;;;;;;6.68;4.35;;;18.60;73.00;;;;;;5013213;28;95410;-46
2021/04/06 01:25:29;;;;;;;7.03;3.95;;;18.60;73.10;;;;;;5021524;28;95762;-57
2021/04/06 01:28:10;;;;;;;8.65;4.47;;;18.60;73.20;;;;;;5017581;28;96025;-52
2021/04/06 01:30:50;;;;;;;;;;;18.70;73.30;;;;;;5002593;28;95759;-45
2021/04/06 01:33:23;;;;;;;9.23;4.43;;;18.70;73.40;;;;;;5018379;28;96089;-52
2021/04/06 01:35:55;;;;;;;7.18;3.80;;;18.80;73.30;;;;;;5016469;28;95685;-56
2021/04/06 01:38:27;;;;;;;5.30;4.13;;;18.90;73.80;;;;;;5021451;28;95950;-52
2021/04/06 01:41:00;;;;;;;6.90;3.97;;;19.00;72.80;;;;;;5019704;28;95855;-45
2021/04/06 01:43:33;;;;;;;7.45;4.45;;;19.00;72.60;;;;;;5013812;28;96488;-55
2021/04/06 01:48:43;;;;;;;6.30;4.43;;;19.10;72.50;;;;;;5011720;27;96608;-54
2021/04/06 01:51:16;;;;;;;4.18;3.70;;;19.10;72.40;;;;;;5022760;28;95814;-53
2021/04/06 01:53:47;;;;;;;7.57;4.45;;;19.20;72.40;;;;;;5011922;28;95843;-54
2021/04/06 01:56:26;;;;;;;5.90;4.22;;;19.20;72.30;;;;;;5019449;28;95227;-54
2021/04/06 01:59:02;;;;;;;4.20;3.65;;;19.20;72.30;;;;;;5024107;28;95780;-53
2021/04/06 02:01:33;;;;;;;4.45;3.88;;;19.20;72.20;;;;;;5014725;28;96687;-45
2021/04/06 02:04:07;;;;;;;7.82;4.88;;;19.30;72.10;;;;;;5014595;28;99554;-45
2021/04/06 02:06:39;;;;;;;7.05;3.67;;;19.30;72.10;;;;;;5022005;27;95777;-52
2021/04/06 02:09:10;;;;;;;4.10;3.70;;;19.30;72.00;;;;;;5013740;28;96066;-56
2021/04/06 02:11:41;;;;;;;7.95;3.90;;;19.40;72.00;;;;;;4994850;28;95920;-52
2021/04/06 02:14:16;;;;;;;5.93;4.35;;;19.40;71.80;;;;;;5011201;28;95973;-56
2021/04/06 02:16:51;;;;;;;11.85;4.75;;;19.40;71.70;;;;;;5009853;28;95271;-52
2021/04/06 02:19:31;;;;;;;6.00;4.55;;;19.40;71.90;;;;;;4993096;28;96182;-51
2021/04/06 02:22:04;;;;;;;5.28;4.22;;;19.40;71.90;;;;;;5012191;28;95889;-55
2021/04/06 02:24:42;;;;;;;7.22;4.70;;;19.50;71.90;;;;;;5010295;28;95831;-57
2021/04/06 02:27:23;;;;;;;5.43;4.30;;;19.50;71.80;;;;;;5006056;28;95754;-45
2021/04/06 02:30:01;;;;;;;;;;;19.60;71.70;;;;;;5012299;28;97095;-45
2021/04/06 02:32:32;;;;;;;6.10;4.80;;;19.60;71.70;;;;;;5012621;28;95837;-52
2021/04/06 02:35:12;;;;;;;7.72;4.55;;;19.60;71.80;;;;;;5011234;28;95846;-45
2021/04/06 02:37:44;;;;;;;4.45;4.05;;;19.60;71.60;;;;;;4993565;28;96454;-56
2021/04/06 02:40:18;;;;;;;5.40;4.15;;;19.60;71.60;;;;;;5014245;28;95715;-45
2021/04/06 02:42:51;;;;;;;6.95;5.10;;;19.70;71.70;;;;;;5021892;27;95854;-55
2021/04/06 02:45:30;;;;;;;5.28;4.78;;;19.70;71.60;;;;;;5012628;27;96131;-55
2021/04/06 02:48:06;;;;;;;5.90;4.88;;;19.70;71.50;;;;;;5016156;28;96445;-45
2021/04/06 02:50:40;;;;;;;6.20;4.50;;;19.80;71.50;;;;;;5017194;28;95225;-52
2021/04/06 02:53:16;;;;;;;5.53;4.28;;;19.80;71.30;;;;;;5017730;28;95987;-45
2021/04/06 02:55:46;;;;;;;10.27;5.75;;;19.80;71.40;;;;;;5008037;28;96115;-54
2021/04/06 02:58:17;;;;;;;5.47;4.72;;;19.90;71.30;;;;;;5015300;28;95695;-55
2021/04/06 03:00:48;;;;;;;7.00;4.57;;;19.90;71.30;;;;;;5007561;28;96243;-56
2021/04/06 03:03:22;;;;;;;5.68;4.70;;;19.90;71.30;;;;;;5016444;28;97082;-52
2021/04/06 03:06:05;;;;;;;6.32;4.47;;;19.90;71.20;;;;;;5018900;28;95994;-56
2021/04/06 03:08:39;;;;;;;6.72;4.80;;;19.90;71.20;;;;;;5011266;28;95500;-57
2021/04/06 03:11:10;;;;;;;5.78;4.75;;;19.90;71.30;;;;;;5010993;28;95410;-45
2021/04/06 03:13:45;;;;;;;5.18;4.28;;;19.90;71.20;;;;;;5010164;28;95847;-56
2021/04/06 03:16:17;;;;;;;5.43;4.50;;;20.00;71.30;;;;;;5009753;28;95815;-45
2021/04/06 03:18:46;;;;;;;;;;;20.00;71.20;;;;;;5012039;28;95657;-52
2021/04/06 03:21:17;;;;;;;8.23;5.68;;;20.00;71.30;;;;;;5016516;28;95486;-45
2021/04/06 03:23:49;;;;;;;;;;;20.00;71.20;;;;;;5019918;28;95814;-45
2021/04/06 03:26:22;;;;;;;7.07;4.72;;;20.00;71.10;;;;;;5007948;28;95966;-45
2021/04/06 03:28:54;;;;;;;6.68;4.70;;;20.00;71.00;;;;;;5019456;28;95929;-45
2021/04/06 03:31:28;;;;;;;6.28;5.00;;;20.10;71.10;;;;;;5005883;28;95415;-56
2021/04/06 03:34:00;;;;;;;5.70;4.13;;;20.10;71.00;;;;;;5013008;28;96107;-46
2021/04/06 03:36:32;;;;;;;6.57;3.97;;;20.10;71.10;;;;;;5007034;28;96108;-52
2021/04/06 03:39:09;;;;;;;7.10;5.00;;;20.10;71.40;;;;;;5014772;28;95757;-45
2021/04/06 03:41:41;;;;;;;5.13;4.55;;;20.10;71.10;;;;;;5016060;28;96017;-45
2021/04/06 03:44:13;;;;;;;7.22;4.90;;;20.10;71.20;;;;;;5009453;28;96576;-53
2021/04/06 03:46:54;;;;;;;6.03;4.68;;;20.10;71.20;;;;;;5011302;28;96685;-45
2021/04/06 03:49:27;;;;;;;6.60;4.85;;;20.10;71.10;;;;;;5017976;28;96030;-45
2021/04/06 03:52:02;;;;;;;7.88;5.20;;;20.10;71.00;;;;;;5016702;28;95783;-45
2021/04/06 03:54:47;;;;;;;8.20;4.85;;;20.20;71.00;;;;;;5013783;28;95934;-45
2021/04/06 03:57:29;;;;;;;5.47;4.43;;;20.20;71.00;;;;;;5012288;28;95933;-45
2021/04/06 03:59:59;;;;;;;10.85;5.38;;;20.20;71.10;;;;;;5018899;28;95264;-46
2021/04/06 04:02:31;;;;;;;5.60;4.40;;;20.20;71.00;;;;;;4990642;28;96436;-45
2021/04/06 04:05:01;;;;;;;6.57;5.03;;;20.20;71.00;;;;;;5011302;28;95934;-56
2021/04/06 04:07:36;;;;;;;7.05;5.00;;;20.20;70.60;;;;;;5012117;28;99453;-52
2021/04/06 04:10:09;;;;;;;5.50;4.57;;;20.20;71.00;;;;;;5019848;28;95345;-44
2021/04/06 04:12:40;;;;;;;8.40;5.40;;;20.20;71.00;;;;;;5019211;28;95976;-46
2021/04/06 04:15:11;;;;;;;7.22;4.60;;;20.20;71.00;;;;;;5010335;28;95955;-45
2021/04/06 04:17:50;;;;;;;5.50;5.00;;;20.20;71.00;;;;;;5005468;28;96121;-45
2021/04/06 04:20:23;;;;;;;8.55;5.85;;;20.20;71.10;;;;;;5023054;28;95507;-53
2021/04/06 04:22:52;;;;;;;9.52;5.75;;;20.10;71.30;;;;;;5011386;28;95873;-46
2021/04/06 04:25:23;;;;;;;6.30;5.10;;;20.10;71.30;;;;;;5012194;28;95920;-46
2021/04/06 04:27:55;;;;;;;5.82;5.22;;;20.10;71.40;;;;;;5017075;28;96860;-55
2021/04/06 04:30:39;;;;;;;8.40;5.45;;;20.10;71.40;;;;;;5007328;28;96856;-55
2021/04/06 04:33:10;;;;;;;6.47;5.07;;;20.20;71.40;;;;;;5007110;27;95966;-53
2021/04/06 04:35:40;;;;;;;7.80;5.88;;;20.20;71.30;;;;;;5008809;28;96565;-46
2021/04/06 04:38:10;;;;;;;7.40;4.95;;;20.20;71.30;;;;;;5016807;28;96236;-56
2021/04/06 04:40:42;;;;;;;5.82;5.18;;;20.20;71.20;;;;;;5016069;28;95453;-46
2021/04/06 04:43:14;;;;;;;8.35;5.07;;;20.20;71.20;;;;;;5012378;28;95577;-51
2021/04/06 04:45:46;;;;;;;5.65;4.70;;;20.20;71.20;;;;;;5015089;27;96465;-53
2021/04/06 04:48:16;;;;;;;5.72;5.13;;;20.20;71.30;;;;;;5011311;28;98629;-45
2021/04/06 04:50:47;;;;;;;7.28;5.00;;;20.20;71.30;;;;;;5011152;27;95765;-45
2021/04/06 04:53:18;;;;;;;10.57;5.55;;;20.20;71.40;;;;;;5016167;28;95948;-57
2021/04/06 04:55:49;;;;;;;7.53;5.93;;;20.30;71.30;;;;;;5016199;27;96496;-55
2021/04/06 04:58:20;;;;;;;7.72;5.90;;;20.30;71.30;;;;;;5018265;27;96993;-45
2021/04/06 05:00:52;;;;;;;5.82;4.30;;;20.30;71.30;;;;;;5010998;28;95863;-50
2021/04/06 05:03:21;;;;;;;7.95;5.28;;;20.30;71.30;;;;;;4996974;28;95211;-45
2021/04/06 05:05:53;;;;;;;5.22;4.72;;;20.30;71.30;;;;;;5012036;27;95928;-55
2021/04/06 05:08:23;;;;;;;8.02;5.38;;;20.30;71.30;;;;;;5009703;28;97879;-55
2021/04/06 05:10:55;;;;;;;8.57;5.47;;;20.30;71.30;;;;;;5017545;28;95816;-45
2021/04/06 05:13:27;;;;;;;6.18;5.57;;;20.20;71.40;;;;;;5015229;28;96234;-45
2021/04/06 05:15:58;;;;;;;6.95;5.28;;;20.30;71.50;;;;;;5009879;28;96668;-46
2021/04/06 05:18:28;;;;;;;8.90;5.60;;;20.30;71.40;;;;;;5021965;28;95789;-56
2021/04/06 05:20:57;;;;;;;9.00;6.55;;;20.30;71.40;;;;;;5013359;28;95890;-53
2021/04/06 05:23:27;;;;;;;7.45;5.57;;;20.30;71.40;;;;;;5013648;28;95701;-54
2021/04/06 05:25:56;;;;;;;8.90;5.68;;;20.30;71.30;;;;;;5013586;28;96454;-45
2021/04/06 05:28:26;;;;;;;6.50;5.32;;;20.30;71.30;;;;;;5009999;28;95873;-45
2021/04/06 05:30:57;;;;;;;7.43;6.32;;;20.30;71.30;;;;;;5011548;27;95860;-54
2021/04/06 05:33:27;;;;;;;6.20;5.60;;;20.30;71.40;;;;;;5015958;28;95606;-45
2021/04/06 05:35:57;;;;;;;8.15;5.60;;;20.40;71.40;;;;;;5013707;28;96501;-51
2021/04/06 05:38:28;;;;;;;9.73;6.05;;;20.40;71.30;;;;;;5015422;28;96000;-57
2021/04/06 05:40:57;;;;;;;7.53;6.03;;;20.30;71.40;;;;;;5007570;28;95408;-46
2021/04/06 05:43:33;;;;;;;7.32;5.65;;;20.40;71.40;;;;;;5025016;28;95543;-45
2021/04/06 05:46:04;;;;;;;5.85;4.97;;;20.40;71.40;;;;;;5019333;27;96530;-55
2021/04/06 05:48:38;;;;;;;7.60;6.38;;;20.40;71.40;;;;;;5010028;28;96978;-52
2021/04/06 05:51:08;;;;;;;7.72;5.82;;;20.40;71.30;;;;;;5011318;28;95361;-47
2021/04/06 05:53:40;;;;;;;9.85;6.65;;;20.40;71.30;;;;;;5017402;28;95493;-45
2021/04/06 05:56:11;;;;;;;7.90;5.82;;;20.40;71.20;;;;;;5012019;28;96900;-55
2021/04/06 05:58:41;;;;;;;6.47;5.90;;;20.40;71.20;;;;;;5009056;28;95763;-45
2021/04/06 06:01:12;;;;;;;6.82;6.13;;;20.40;71.30;;;;;;5011967;28;95770;-53
2021/04/06 06:03:45;;;;;;;9.38;6.43;;;20.40;71.30;;;;;;5005116;28;95660;-45
2021/04/06 06:06:15;;;;;;;8.40;6.35;;;20.40;71.30;;;;;;5019299;28;96636;-46
2021/04/06 06:08:51;;;;;;;6.40;5.80;;;20.40;71.20;;;;;;5011973;28;95552;-46
2021/04/06 06:11:21;;;;;;;8.38;5.97;;;20.40;71.20;;;;;;5022347;28;95812;-56
2021/04/06 06:13:52;;;;;;;9.90;6.50;;;20.40;71.20;;;;;;5019154;28;96118;-57
2021/04/06 06:16:25;;;;;;;9.05;6.30;;;20.40;71.10;;;;;;4991572;28;96182;-46
2021/04/06 06:19:03;;;;;;;8.25;6.18;;;20.40;71.70;;;;;;5012626;28;95514;-58
2021/04/06 06:21:50;;;;;;;6.47;5.88;;;20.40;71.30;;;;;;5022039;28;95881;-46
2021/04/06 06:24:38;;;;;;;10.48;7.10;;;20.40;71.30;;;;;;5020736;28;95654;-54
2021/04/06 06:27:38;;;;;;;12.00;7.20;;;20.50;71.40;;;;;;5017235;27;96440;-56
2021/04/06 06:30:25;;;;;;;7.28;6.57;;;20.40;71.30;;;;;;5027636;27;97916;-46
2021/04/06 06:33:15;;;;;;;7.75;6.00;;;20.40;72.00;;;;;;5019919;27;96416;-54
2021/04/06 06:35:58;;;;;;;7.65;6.85;;;20.40;71.70;;;;;;5018926;27;95735;-53
2021/04/06 06:38:33;;;;;;;7.00;6.22;;;20.40;71.60;;;;;;5014529;28;95957;-51
2021/04/06 06:41:21;;;;;;;9.38;6.32;;;20.40;71.60;;;;;;5009121;28;96003;-43
2021/04/06 06:43:56;;;;;;;8.57;6.85;;;20.30;71.70;;;;;;5009612;27;95683;-51
2021/04/06 06:46:31;;;;;;;9.20;7.43;;;20.30;71.70;;;;;;5009739;27;95736;-52
2021/04/06 06:49:38;;;;;;;9.68;7.72;;;20.30;71.80;;;;;;5011155;27;95852;-45
2021/04/06 06:52:27;;;;;;;9.43;6.38;;;20.30;71.80;;;;;;5015729;27;96921;-45
2021/04/06 06:55:16;;;;;;;8.18;6.88;;;20.30;72.00;;;;;;5015289;28;98287;-53
2021/04/06 06:57:47;;;;;;;9.60;6.80;;;20.30;72.10;;;;;;5018678;28;95291;-45
2021/04/06 07:00:23;;;;;;;6.63;6.03;;;20.20;71.90;;;;;;5007865;28;98190;-56
2021/04/06 07:02:53;;;;;;;8.43;6.57;;;20.30;72.10;;;;;;5006789;28;98091;-52
2021/04/06 07:05:26;;;;;;;8.60;6.88;;;20.30;71.90;;;;;;5002962;28;95849;-46
2021/04/06 07:08:08;;;;;;;9.63;7.78;;;20.30;72.10;;;;;;5017640;28;96150;-51
2021/04/06 07:10:40;;;;;;;10.75;7.03;;;20.40;72.10;;;;;;5014103;28;95896;-51
2021/04/06 07:13:21;;;;;;;12.38;7.88;;;20.30;72.00;;;;;;5018586;28;95737;-52
2021/04/06 07:15:52;;;;;;;9.70;7.57;;;20.30;72.10;;;;;;5009182;28;101211;-45
2021/04/06 07:18:26;;;;;;;9.48;7.50;;;20.20;72.20;;;;;;5013280;28;95968;-52
2021/04/06 07:21:02;;;;;;;10.52;7.22;;;20.20;72.40;;;;;;5005729;28;95886;-45
2021/04/06 07:23:59;;;;;;;7.38;6.68;;;20.20;72.50;;;;;;5015737;28;95432;-48
2021/04/06 07:26:30;;;;;;;8.80;7.45;;;20.20;72.40;;;;;;5016562;27;95189;-48
2021/04/06 07:29:02;;;;;;;8.35;7.55;;;20.20;73.10;;;;;;5017310;28;95734;-51
2021/04/06 07:31:32;;;;;;;10.30;8.85;;;20.20;72.40;;;;;;5027395;27;98477;-43
2021/04/06 07:34:10;;;;;;;8.93;6.85;;;20.20;72.50;;;;;;4996785;28;95933;-45
2021/04/06 07:36:40;;;;;;;7.93;6.72;;;20.20;72.70;;;;;;5015330;28;103589;-43
2021/04/06 07:39:13;;;;;;;10.15;8.63;;;20.20;72.60;;;;;;5008557;28;95858;-50
2021/04/06 07:41:45;;;;;;;10.82;7.93;;;20.10;72.60;;;;;;5010288;28;100144;-52
2021/04/06 07:44:16;;;;;;;8.45;7.38;;;20.20;72.80;;;;;;5003011;28;95618;-49
2021/04/06 07:46:48;;;;;;;;;;;20.20;72.60;;;;;;5011588;28;95940;-50
2021/04/06 07:49:20;;;;;;;;;;;20.20;72.70;;;;;;5015044;28;95829;-54
2021/04/06 07:51:54;;;;;;;10.73;8.45;;;20.10;72.70;;;;;;5014241;28;95805;-44
2021/04/06 07:54:25;;;;;;;8.68;7.35;;;20.10;72.80;;;;;;5007590;28;95821;-55
2021/04/06 07:57:01;;;;;;;10.27;8.40;;;20.10;72.90;;;;;;5012904;28;95747;-44
2021/04/06 07:59:34;;;;;;;11.18;8.05;;;20.10;72.70;;;;;;5016539;28;95709;-45
2021/04/06 08:02:07;;;;;;;10.85;8.32;;;20.10;72.80;;;;;;5003926;28;96059;-50
2021/04/06 08:04:47;;;;;;;10.63;8.30;;;20.10;72.70;;;;;;5014396;28;95278;-51
2021/04/06 08:07:33;;;;;;;13.55;9.15;;;20.10;72.80;;;;;;5009232;28;95875;-54
2021/04/06 08:10:11;;;;;;;10.27;7.53;;;20.10;72.90;;;;;;5012968;28;95625;-45
2021/04/06 08:12:42;;;;;;;10.00;8.02;;;20.10;73.40;;;;;;5011674;28;96580;-53
2021/04/06 08:15:16;;;;;;;12.40;8.77;;;20.10;72.80;;;;;;5021921;28;95430;-51
2021/04/06 08:18:02;;;;;;;11.25;8.77;;;20.10;72.70;;;;;;5010754;28;95800;-45
2021/04/06 08:20:38;;;;;;;12.90;8.35;;;20.10;72.70;;;;;;5030404;27;95783;-45
2021/04/06 08:23:14;;;;;;;12.73;9.02;;;20.10;72.80;;;;;;5015528;27;95967;-53
2021/04/06 08:25:48;;;;;;;11.50;8.70;;;20.10;72.70;;;;;;4997526;28;95876;-45
2021/04/06 08:28:33;;;;;;;11.25;8.38;;;20.10;72.80;;;;;;5002850;28;99132;-45
2021/04/06 08:31:23;;;;;;;11.68;9.45;;;20.20;72.80;;;;;;5007859;28;96861;-49
2021/04/06 08:33:53;;;;;;;13.05;8.60;;;20.10;72.80;;;;;;5002481;28;95955;-45
2021/04/06 08:36:28;;;;;;;12.02;9.32;;;20.10;72.80;;;;;;5008165;28;95728;-45
2021/04/06 08:38:58;;;;;;;12.15;9.63;;;20.10;72.90;;;;;;5013391;27;95935;-46
2021/04/06 08:41:32;;;;;;;;;;;20.10;73.00;;;;;;5019627;27;96004;-45
2021/04/06 08:44:06;;;;;;;13.40;8.63;;;20.10;73.00;;;;;;5015396;27;98179;-45
2021/04/06 08:46:48;;;;;;;15.38;10.23;;;20.10;73.00;;;;;;5013127;27;95420;-50
2021/04/06 08:49:28;;;;;;;15.15;9.93;;;20.10;73.20;;;;;;5002800;28;95399;-52
2021/04/06 08:52:03;;;;;;;11.90;10.52;;;20.10;73.20;;;;;;5014100;28;95986;-50
2021/04/06 08:54:35;;;;;;;13.82;10.52;;;20.10;73.30;;;;;;5015582;28;96641;-45
2021/04/06 08:57:08;;;;;;;14.23;9.98;;;20.10;73.50;;;;;;5016492;27;95355;-49
2021/04/06 08:59:43;;;;;;;17.73;12.35;;;20.00;73.40;;;;;;5025443;27;95880;-49
2021/04/06 09:02:17;;;;;;;19.30;13.63;;;20.10;73.50;;;;;;5003266;28;95937;-52
2021/04/06 09:04:49;;;;;;;22.63;14.57;;;20.10;73.80;;;;;;5009347;28;96742;-44
2021/04/06 09:07:21;;;;;;;21.92;14.77;;;20.10;73.70;;;;;;5008079;28;95772;-46
2021/04/06 09:10:00;;;;;;;22.60;13.33;;;20.10;73.80;;;;;;5013744;28;95662;-50
2021/04/06 09:12:32;;;;;;;23.15;14.32;;;20.10;73.90;;;;;;5013575;28;95857;-43
2021/04/06 09:15:05;;;;;;;17.95;13.15;;;20.00;73.90;;;;;;5011321;27;95919;-44
2021/04/06 09:17:36;;;;;;;25.58;14.60;;;20.00;74.00;;;;;;5005639;28;95822;-43
2021/04/06 09:20:29;;;;;;;20.33;13.82;;;20.00;74.00;;;;;;5009202;28;99163;-49
2021/04/06 09:22:58;;;;;;;18.90;13.98;;;20.00;73.80;;;;;;5014903;28;95906;-48
2021/04/06 09:25:30;;;;;;;21.35;13.35;;;20.00;73.90;;;;;;5013217;28;96596;-43
2021/04/06 09:28:07;;;;;;;23.38;14.70;;;20.10;74.10;;;;;;4997282;28;97232;-43
2021/04/06 09:30:44;;;;;;;18.83;12.85;;;20.00;74.00;;;;;;5012329;28;95852;-49
2021/04/06 09:33:17;;;;;;;19.90;14.18;;;20.00;74.10;;;;;;5000776;27;95945;-49
2021/04/06 09:35:50;;;;;;;24.63;13.70;;;20.00;74.10;;;;;;5006808;28;96067;-48
2021/04/06 09:38:24;;;;;;;18.52;13.63;;;20.00;74.10;;;;;;5012618;28;95362;-49
2021/04/06 09:40:55;;;;;;;21.08;14.95;;;20.00;74.30;;;;;;5010559;28;99554;-50
2021/04/06 09:43:26;;;;;;;23.87;13.40;;;20.00;74.20;;;;;;5016336;28;95717;-51
2021/04/06 09:45:57;;;;;;;;;;;20.00;74.30;;;;;;5012311;28;96526;-43
2021/04/06 09:48:27;;;;;;;22.25;14.20;;;20.00;74.10;;;;;;5016884;28;96196;-49
2021/04/06 09:51:06;;;;;;;23.70;14.73;;;20.00;74.20;;;;;;5005434;27;95789;-48
2021/04/06 09:53:40;;;;;;;22.27;13.32;;;19.90;74.20;;;;;;5014467;28;95672;-44
2021/04/06 09:56:11;;;;;;;20.65;12.85;;;19.90;74.20;;;;;;5002346;28;96431;-43
2021/04/06 09:58:42;;;;;;;19.17;12.65;;;19.90;74.30;;;;;;5016649;28;95822;-44
2021/04/06 10:01:25;;;;;;;19.10;13.18;;;19.90;74.40;;;;;;5016142;27;96356;-44
2021/04/06 10:04:02;;;;;;;21.05;13.73;;;19.90;74.20;;;;;;5021849;28;96458;-49
2021/04/06 10:06:44;;;;;;;19.95;14.30;;;19.90;74.30;;;;;;5006301;28;95878;-48
2021/04/06 10:09:26;;;;;;;17.50;13.20;;;19.90;74.40;;;;;;5004583;28;97200;-43
2021/04/06 10:11:57;;;;;;;18.70;12.48;;;19.90;74.20;;;;;;5016426;28;101564;-51
2021/04/06 10:14:29;;;;;;;22.73;14.00;;;19.90;74.30;;;;;;5001848;28;95413;-43
2021/04/06 10:17:07;;;;;;;21.60;13.65;;;19.90;74.10;;;;;;5014666;27;95913;-48
2021/04/06 10:20:52;;;;;;;20.67;14.05;;;19.90;73.50;;;;;;5012691;27;96031;-44
2021/04/06 10:23:36;;;;;;;20.67;13.90;;;20.00;74.00;;;;;;5001388;27;98226;-49
2021/04/06 10:26:17;;;;;;;17.80;13.30;;;19.90;73.80;;;;;;5016133;27;96361;-52
2021/04/06 10:29:00;;;;;;;21.38;14.43;;;19.90;74.10;;;;;;5005190;27;96028;-48
2021/04/06 10:31:47;;;;;;;20.00;14.65;;;19.90;74.10;;;;;;4981099;27;96510;-47
2021/04/06 10:34:17;;;;;;;19.73;13.93;;;19.90;74.00;;;;;;4952489;28;96241;-55
2021/04/06 10:37:08;;;;;;;20.08;14.30;;;19.90;74.00;;;;;;4949953;28;95895;-46
2021/04/06 10:39:43;;;;;;;22.38;14.75;;;19.90;74.00;;;;;;4952396;28;104485;-53
2021/04/06 10:42:16;;;;;;;18.80;14.43;;;19.90;73.90;;;;;;4956110;28;95827;-53
2021/04/06 10:44:48;;;;;;;16.23;13.75;;;19.90;74.00;;;;;;4951298;28;97220;-56
2021/04/06 10:47:28;;;;;;;21.15;14.50;;;19.90;74.10;;;;;;4952184;28;96993;-54
2021/04/06 10:49:59;;;;;;;22.23;14.68;;;19.80;74.00;;;;;;4951502;28;95891;-47
2021/04/06 10:52:30;;;;;;;;;;;19.80;74.10;;;;;;4955191;28;95813;-54
2021/04/06 10:55:02;;;;;;;19.17;13.55;;;19.80;74.20;;;;;;4955757;28;95795;-47
2021/04/06 10:57:39;;;;;;;20.83;14.90;;;19.80;74.20;;;;;;4958082;28;95764;-54
2021/04/06 11:00:24;;;;;;;19.10;14.27;;;19.80;74.20;;;;;;4952230;28;96670;-54
2021/04/06 11:03:14;;;;;;;16.38;12.98;;;19.80;74.10;;;;;;4955690;28;102199;-55
2021/04/06 11:05:44;;;;;;;18.45;13.85;;;19.70;74.20;;;;;;4949127;28;95681;-53
2021/04/06 11:08:26;;;;;;;17.70;13.27;;;19.70;74.20;;;;;;4956347;28;96194;-47
2021/04/06 11:11:19;;;;;;;19.10;14.13;;;19.70;74.20;;;;;;4946939;28;96738;-51
2021/04/06 11:13:49;;;;;;;18.98;14.30;;;19.70;74.30;;;;;;4954349;28;98574;-51
2021/04/06 11:16:22;;;;;;;19.17;13.73;;;19.70;74.10;;;;;;4947262;28;102483;-47
2021/04/06 11:19:03;;;;;;;16.50;13.43;;;19.70;74.10;;;;;;4953952;28;95775;-53
2021/04/06 11:21:37;;;;;;;19.98;13.48;;;19.70;74.10;;;;;;4953246;28;95763;-53
2021/04/06 11:24:08;;;;;;;18.25;13.63;;;19.70;74.10;;;;;;4957886;28;96180;-46
2021/04/06 11:26:39;;;;;;;21.02;14.93;;;19.60;74.10;;;;;;4947255;28;95799;-47
2021/04/06 11:29:12;;;;;;;16.48;13.07;;;19.60;74.10;;;;;;4947266;28;96331;-47
2021/04/06 11:31:46;;;;;;;18.42;13.05;;;19.60;74.90;;;;;;4937608;28;96216;-46
2021/04/06 11:34:16;;;;;;;20.40;14.43;;;19.60;74.10;;;;;;4943858;28;95910;-47
2021/04/06 11:36:47;;;;;;;16.95;13.80;;;19.60;74.10;;;;;;4939895;28;95953;-47
2021/04/06 11:39:19;;;;;;;17.50;13.40;;;19.50;74.10;;;;;;4940211;28;96165;-46
2021/04/06 11:41:50;;;;;;;18.15;13.15;;;19.50;74.00;;;;;;4933646;28;96307;-47
2021/04/06 11:44:21;;;;;;;17.25;11.57;;;19.50;74.10;;;;;;4939026;28;95741;-52
2021/04/06 11:46:52;;;;;;;18.42;14.13;;;19.50;74.20;;;;;;4936045;28;95346;-46
2021/04/06 11:49:22;;;;;;;17.83;13.23;;;19.50;74.10;;;;;;4955951;28;96162;-47
2021/04/06 11:51:52;;;;;;;15.98;12.63;;;19.50;74.70;;;;;;4988809;28;96755;-51
2021/04/06 11:54:25;;;;;;;17.02;13.07;;;19.40;74.10;;;;;;4958571;28;96005;-47
2021/04/06 11:56:56;;;;;;;17.10;13.32;;;19.50;74.20;;;;;;4949604;28;95682;-46
2021/04/06 11:59:29;;;;;;;19.75;13.80;;;19.50;74.00;;;;;;4962482;28;95696;-53
2021/04/06 12:01:59;;;;;;;17.05;12.60;;;19.40;74.00;;;;;;4951801;28;98715;-51
2021/04/06 12:04:30;;;;;;;16.40;12.02;;;19.40;74.10;;;;;;4959044;28;95727;-54
2021/04/06 12:07:01;;;;;;;14.95;11.10;;;19.40;74.10;;;;;;4963081;28;95776;-46
2021/04/06 12:09:31;;;;;;;17.50;12.73;;;19.40;74.10;;;;;;4962514;28;96055;-47
2021/04/06 12:12:11;;;;;;;18.75;13.85;;;19.40;74.80;;;;;;4956596;28;96230;-54
2021/04/06 12:14:42;;;;;;;15.07;12.80;;;19.30;74.10;;;;;;4954264;28;96056;-47
2021/04/06 12:17:13;;;;;;;18.00;12.18;;;19.30;74.10;;;;;;4945681;28;98197;-51
2021/04/06 12:19:44;;;;;;;16.58;12.05;;;19.30;74.10;;;;;;4954761;28;96081;-50
2021/04/06 12:22:14;;;;;;;14.95;11.02;;;19.30;74.20;;;;;;4960078;28;101705;-51
2021/04/06 12:24:45;;;;;;;16.20;12.13;;;19.30;74.10;;;;;;4958998;28;95968;-52
2021/04/06 12:27:16;;;;;;;16.83;11.30;;;19.30;74.10;;;;;;4962973;28;95207;-51
2021/04/06 12:29:45;;;;;;;18.58;12.48;;;19.30;74.10;;;;;;4961896;28;95408;-50
2021/04/06 12:32:18;;;;;;;15.18;10.50;;;19.20;74.00;;;;;;4951657;28;96427;-51
2021/04/06 12:34:48;;;;;;;14.50;10.98;;;19.30;74.10;;;;;;4944700;28;97358;-52
2021/04/06 12:37:17;;;;;;;14.68;11.18;;;19.30;74.00;;;;;;4958202;28;95841;-53
2021/04/06 12:40:02;;;;;;;13.80;10.43;;;19.20;74.00;;;;;;4959150;28;95723;-53
2021/04/06 12:42:32;;;;;;;14.70;10.77;;;19.20;74.00;;;;;;4955092;28;96770;-51
2021/04/06 12:45:04;;;;;;;18.88;12.20;;;19.20;74.00;;;;;;4961380;28;95696;-54
2021/04/06 12:47:34;;;;;;;16.15;11.32;;;19.20;73.80;;;;;;4939564;28;97920;-47
2021/04/06 12:50:04;;;;;;;19.13;12.63;;;19.20;73.90;;;;;;4936668;28;95825;-54
2021/04/06 12:52:34;;;;;;;16.52;11.27;;;19.20;73.90;;;;;;4943425;28;98734;-52
2021/04/06 12:55:07;;;;;;;15.43;11.25;;;19.10;73.80;;;;;;4938295;28;104097;-50
2021/04/06 12:57:38;;;;;;;17.88;11.43;;;19.20;73.80;;;;;;4942298;28;95769;-51
2021/04/06 13:00:10;;;;;;;21.07;12.63;;;19.10;73.80;;;;;;4939747;28;96096;-54
2021/04/06 13:02:40;;;;;;;20.02;12.05;;;19.10;73.80;;;;;;4940754;28;96435;-51
2021/04/06 13:05:11;;;;;;;16.85;11.30;;;19.10;73.80;;;;;;4936162;28;96233;-51
2021/04/06 13:07:43;;;;;;;17.77;11.93;;;19.10;73.80;;;;;;4941890;28;95881;-47
2021/04/06 13:10:18;;;;;;;;;;;19.10;73.70;;;;;;4936497;28;96999;-50
2021/04/06 13:12:50;;;;;;;17.52;11.38;;;19.10;73.80;;;;;;4946906;28;97141;-54
2021/04/06 13:15:21;;;;;;;15.05;10.43;;;19.10;73.80;;;;;;4935379;28;95971;-46
2021/04/06 13:17:55;;;;;;;15.82;10.32;;;19.10;73.80;;;;;;4939120;28;95832;-52
2021/04/06 13:20:27;;;;;;;17.10;11.20;;;19.00;73.70;;;;;;4940951;28;96119;-55
2021/04/06 13:23:01;;;;;;;16.25;11.30;;;19.00;73.70;;;;;;4933708;28;95904;-47